Terminal Aerodrome Forecast
Issued by NWS

Home | Current Version | Previous Version | Graphics & Text | Print | Product List | Glossary On
Versions: 1 2 3 4 5 6 7 8 9 10 11 12 13 14 15 16 17 18 19 20 21
322
FTUS43 KICT 151137
TAFHUT
TAF
KHUT 151137Z 1512/1612 06005KT 6SM -FZRA SCT005 OVC007
      TEMPO 1512/1515 3SM FZRA
     FM151600 06006KT 6SM -FZDZ SCT005 OVC007
     FM151900 06006KT 6SM -RADZ SCT005 OVC007
     FM160200 06008KT 5SM RA VCTS SCT005 OVC007CB=

USA.gov is the U.S. government's official web portal to all federal, state and local government web resources and services.